Time;durP1;ratioP1;P1;durP2;ratioP2;P2;SDS_P1;SDS_P2;PMS_P1;PMS_P2;Temp;Humidity;BMP_temperature;BMP_pressure;BME280_temperature;BME280_humidity;BME280_pressure;Samples;Min_cycle;Max_cycle;Signal;HPM_P1;HPM_P2
2023/04/18 00:00:24;;;;;;;22.00;15.45;;;;;;;;;;5014703;28;20068;-78
2023/04/18 00:02:53;;;;;;;23.98;15.38;;;;;;;;;;5029409;28;20168;-79
2023/04/18 00:05:22;;;;;;;23.20;15.88;;;;;;;;;;5041082;28;20033;-78
2023/04/18 00:07:48;;;;;;;21.52;15.18;;;;;;;;;;5041910;28;20041;-78
2023/04/18 00:10:14;;;;;;;22.20;14.57;;;;;;;;;;5048485;28;20115;-78
2023/04/18 00:12:41;;;;;;;28.00;19.83;;;;;;;;;;5030078;28;20393;-77
2023/04/18 00:15:08;;;;;;;26.23;18.02;;;;;;;;;;5040447;28;20045;-77
2023/04/18 00:17:37;;;;;;;31.00;19.30;;;;;;;;;;5036005;28;20033;-77
2023/04/18 00:20:05;;;;;;;25.65;17.30;;;;;;;;;;5030379;28;20090;-77
2023/04/18 00:22:31;;;;;;;24.42;17.23;;;;;;;;;;5019015;28;20470;-77
2023/04/18 00:24:57;;;;;;;23.33;17.27;;;;;;;;;;5047688;28;20051;-77
2023/04/18 00:27:23;;;;;;;26.50;16.90;;;;;;;;;;5050520;28;20126;-78
2023/04/18 00:29:49;;;;;;;21.48;14.77;;;;;;;;;;5031257;28;20033;-78
2023/04/18 00:32:15;;;;;;;16.50;12.63;;;;;;;;;;5041924;28;20033;-77
2023/04/18 00:34:41;;;;;;;19.25;13.00;;;;;;;;;;5033218;28;20037;-76
2023/04/18 00:37:07;;;;;;;18.65;12.38;;;;;;;;;;5014600;28;20048;-77
2023/04/18 00:39:36;;;;;;;17.60;12.70;;;;;;;;;;5047585;28;20128;-77
2023/04/18 00:42:03;;;;;;;19.58;12.90;;;;;;;;;;5040673;28;20033;-76
2023/04/18 00:44:30;;;;;;;18.00;12.48;;;;;;;;;;5045777;28;20431;-76
2023/04/18 00:46:56;;;;;;;16.48;12.00;;;;;;;;;;5035108;28;20060;-77
2023/04/18 00:49:23;;;;;;;17.48;12.15;;;;;;;;;;5031308;28;20446;-78
2023/04/18 00:51:49;;;;;;;16.95;12.43;;;;;;;;;;5048575;28;20477;-77
2023/04/18 00:54:17;;;;;;;15.90;12.10;;;;;;;;;;5031086;28;20044;-76
2023/04/18 00:56:44;;;;;;;17.02;11.75;;;;;;;;;;5049197;28;20033;-77
2023/04/18 00:59:10;;;;;;;16.35;11.57;;;;;;;;;;5033843;28;20041;-76
2023/04/18 01:01:38;;;;;;;18.90;13.35;;;;;;;;;;5029412;28;20041;-76
2023/04/18 01:04:05;;;;;;;18.35;13.10;;;;;;;;;;5029484;28;20038;-77
2023/04/18 01:06:31;;;;;;;16.40;12.23;;;;;;;;;;5042798;28;20079;-77
2023/04/18 01:08:57;;;;;;;16.20;11.50;;;;;;;;;;5047759;28;20033;-78
2023/04/18 01:11:23;;;;;;;15.70;11.88;;;;;;;;;;5010934;28;20079;-76
2023/04/18 01:14:00;;;;;;;18.33;11.48;;;;;;;;;;5035798;28;20045;-77
2023/04/18 01:16:26;;;;;;;15.95;10.65;;;;;;;;;;5047556;28;20029;-76
2023/04/18 01:18:52;;;;;;;15.40;10.55;;;;;;;;;;5041174;28;20041;-77
2023/04/18 01:21:20;;;;;;;13.57;9.52;;;;;;;;;;5034349;28;20029;-78
2023/04/18 01:23:50;;;;;;;13.15;8.40;;;;;;;;;;5033403;28;20049;-77
2023/04/18 01:26:16;;;;;;;10.38;7.85;;;;;;;;;;5035665;28;20040;-77
2023/04/18 01:28:42;;;;;;;10.30;7.47;;;;;;;;;;5035909;28;20033;-76
2023/04/18 01:31:08;;;;;;;11.18;7.90;;;;;;;;;;5036595;28;20052;-77
2023/04/18 01:33:34;;;;;;;12.02;8.48;;;;;;;;;;5032311;28;20437;-76
2023/04/18 01:36:00;;;;;;;11.93;7.70;;;;;;;;;;5033335;28;20038;-77
2023/04/18 01:38:26;;;;;;;9.60;6.82;;;;;;;;;;5032552;28;20183;-77
2023/04/18 01:40:53;;;;;;;10.52;7.32;;;;;;;;;;5032797;28;20028;-77
2023/04/18 01:43:19;;;;;;;12.07;7.68;;;;;;;;;;5046196;28;20041;-76
2023/04/18 01:45:45;;;;;;;11.00;7.15;;;;;;;;;;5044204;28;20045;-78
2023/04/18 01:48:11;;;;;;;13.10;7.60;;;;;;;;;;5014695;28;20041;-76
2023/04/18 01:50:37;;;;;;;12.68;7.75;;;;;;;;;;5043772;28;20099;-78
2023/04/18 01:53:03;;;;;;;13.50;7.03;;;;;;;;;;5041263;28;20043;-77
2023/04/18 01:55:29;;;;;;;11.75;7.57;;;;;;;;;;5019311;28;20120;-79
2023/04/18 01:57:55;;;;;;;11.57;7.03;;;;;;;;;;5039571;28;20443;-78
2023/04/18 02:00:21;;;;;;;13.57;6.93;;;;;;;;;;5051714;28;20363;-78
2023/04/18 02:02:49;;;;;;;12.40;6.93;;;;;;;;;;5045436;28;20033;-77
2023/04/18 02:05:15;;;;;;;12.32;6.93;;;;;;;;;;5032686;28;20109;-77
2023/04/18 02:07:41;;;;;;;10.80;6.68;;;;;;;;;;5047378;28;20041;-76
2023/04/18 02:10:08;;;;;;;11.77;7.22;;;;;;;;;;5041334;28;20104;-77
2023/04/18 02:12:34;;;;;;;14.77;9.40;;;;;;;;;;5014966;28;20133;-77
2023/04/18 02:15:00;;;;;;;19.17;12.43;;;;;;;;;;5037340;28;20029;-77
2023/04/18 02:17:27;;;;;;;19.90;10.90;;;;;;;;;;5038027;28;20029;-77
2023/04/18 02:19:53;;;;;;;12.80;8.43;;;;;;;;;;5034985;28;20072;-76
2023/04/18 02:22:19;;;;;;;14.57;9.15;;;;;;;;;;5046850;28;20029;-77
2023/04/18 02:24:45;;;;;;;13.82;8.85;;;;;;;;;;5051246;28;20648;-77
2023/04/18 02:27:11;;;;;;;12.70;8.68;;;;;;;;;;5032823;28;20068;-78
2023/04/18 02:29:37;;;;;;;14.57;9.65;;;;;;;;;;5050628;28;20130;-76
2023/04/18 02:32:03;;;;;;;15.35;10.68;;;;;;;;;;5041637;28;20041;-77
2023/04/18 02:34:31;;;;;;;16.00;11.00;;;;;;;;;;5028574;28;20498;-76
2023/04/18 02:36:57;;;;;;;13.18;9.70;;;;;;;;;;5033469;28;20044;-77
2023/04/18 02:39:23;;;;;;;14.48;9.68;;;;;;;;;;5048832;28;20044;-77
2023/04/18 02:41:49;;;;;;;12.63;8.60;;;;;;;;;;5036837;28;20040;-76
2023/04/18 02:44:15;;;;;;;12.02;7.97;;;;;;;;;;5034571;28;20040;-76
2023/04/18 02:46:41;;;;;;;11.60;7.43;;;;;;;;;;5031441;28;20033;-76
2023/04/18 02:49:08;;;;;;;10.68;7.13;;;;;;;;;;5023345;28;20037;-76
2023/04/18 02:51:34;;;;;;;11.32;7.00;;;;;;;;;;5032256;28;20037;-77
2023/04/18 02:54:00;;;;;;;10.20;6.53;;;;;;;;;;5039773;28;20043;-76
2023/04/18 02:56:26;;;;;;;16.40;9.10;;;;;;;;;;5032441;28;20029;-77
2023/04/18 02:58:52;;;;;;;14.38;8.90;;;;;;;;;;5021936;28;20036;-76
2023/04/18 03:01:18;;;;;;;12.40;7.68;;;;;;;;;;5042949;28;20067;-77
2023/04/18 03:03:44;;;;;;;11.75;6.80;;;;;;;;;;5043222;28;20029;-77
2023/04/18 03:06:11;;;;;;;10.10;6.43;;;;;;;;;;5031535;28;20502;-77
2023/04/18 03:08:37;;;;;;;11.45;6.60;;;;;;;;;;5036986;28;20057;-77
2023/04/18 03:11:03;;;;;;;9.20;6.07;;;;;;;;;;5031784;28;20033;-77
2023/04/18 03:13:29;;;;;;;9.68;6.10;;;;;;;;;;5030168;28;20060;-77
2023/04/18 03:15:55;;;;;;;13.18;7.07;;;;;;;;;;5045010;28;20029;-77
2023/04/18 03:18:21;;;;;;;12.35;6.80;;;;;;;;;;5042087;28;20099;-78
2023/04/18 03:20:47;;;;;;;10.15;6.20;;;;;;;;;;5040108;28;20070;-77
2023/04/18 03:23:13;;;;;;;10.80;6.80;;;;;;;;;;5034773;28;20033;-77
2023/04/18 03:25:39;;;;;;;10.75;6.43;;;;;;;;;;5044188;28;20060;-77
2023/04/18 03:28:05;;;;;;;12.73;6.63;;;;;;;;;;5044296;28;20121;-76
2023/04/18 03:30:31;;;;;;;10.60;6.80;;;;;;;;;;5039817;28;20032;-76
2023/04/18 03:32:58;;;;;;;11.30;6.90;;;;;;;;;;5045700;28;20036;-76
2023/04/18 03:35:24;;;;;;;9.32;6.22;;;;;;;;;;5040744;28;20033;-77
2023/04/18 03:37:50;;;;;;;10.75;6.55;;;;;;;;;;5033756;28;20045;-77
2023/04/18 03:40:17;;;;;;;11.43;7.20;;;;;;;;;;5014226;28;20036;-77
2023/04/18 03:42:43;;;;;;;12.10;7.32;;;;;;;;;;5042622;28;20037;-78
2023/04/18 03:45:10;;;;;;;11.43;6.80;;;;;;;;;;5023537;28;20044;-78
2023/04/18 03:47:36;;;;;;;11.35;7.03;;;;;;;;;;5026870;28;20037;-78
2023/04/18 03:50:02;;;;;;;13.05;7.43;;;;;;;;;;5048943;28;20544;-77
2023/04/18 03:52:29;;;;;;;13.07;7.28;;;;;;;;;;5037921;28;20029;-76
2023/04/18 03:54:55;;;;;;;12.13;7.32;;;;;;;;;;5029907;28;20111;-77
2023/04/18 03:57:21;;;;;;;13.88;8.15;;;;;;;;;;5030094;28;20029;-76
2023/04/18 03:59:47;;;;;;;14.80;8.52;;;;;;;;;;5048551;28;20025;-78
2023/04/18 04:02:13;;;;;;;14.52;8.82;;;;;;;;;;5032700;28;20116;-77
2023/04/18 04:04:39;;;;;;;16.42;8.70;;;;;;;;;;5029881;28;20041;-77
2023/04/18 04:07:05;;;;;;;15.65;8.80;;;;;;;;;;5033026;28;20049;-77
2023/04/18 04:09:31;;;;;;;16.92;8.93;;;;;;;;;;5046211;28;20032;-77
2023/04/18 04:11:57;;;;;;;17.70;9.30;;;;;;;;;;5044715;28;20037;-78
2023/04/18 04:14:23;;;;;;;16.45;8.70;;;;;;;;;;5049112;28;20029;-77
2023/04/18 04:16:50;;;;;;;19.02;9.45;;;;;;;;;;5041266;28;20087;-77
2023/04/18 04:19:16;;;;;;;17.40;9.55;;;;;;;;;;5044678;28;20061;-78
2023/04/18 04:21:42;;;;;;;16.58;8.60;;;;;;;;;;5040825;28;20033;-77
2023/04/18 04:24:08;;;;;;;15.63;8.60;;;;;;;;;;5013960;28;20550;-77
2023/04/18 04:26:34;;;;;;;16.90;9.38;;;;;;;;;;5036484;28;20048;-78
2023/04/18 04:29:02;;;;;;;18.20;10.25;;;;;;;;;;5044176;28;20045;-76
2023/04/18 04:31:28;;;;;;;21.98;13.65;;;;;;;;;;5038390;28;20375;-77
2023/04/18 04:33:54;;;;;;;30.88;18.63;;;;;;;;;;5036968;28;20034;-77
2023/04/18 04:36:21;;;;;;;26.08;16.48;;;;;;;;;;5042555;28;20069;-78
2023/04/18 04:38:48;;;;;;;19.88;11.98;;;;;;;;;;5040559;28;20033;-76
2023/04/18 04:41:14;;;;;;;18.23;10.07;;;;;;;;;;5032368;28;20033;-77
2023/04/18 04:43:41;;;;;;;16.45;10.18;;;;;;;;;;5012078;28;20036;-78
2023/04/18 04:46:08;;;;;;;16.40;9.75;;;;;;;;;;5033081;28;20035;-77
2023/04/18 04:48:34;;;;;;;16.73;10.50;;;;;;;;;;5023416;28;20045;-78
2023/04/18 04:51:00;;;;;;;14.30;9.20;;;;;;;;;;5044928;28;20029;-77
2023/04/18 04:53:30;;;;;;;16.13;9.05;;;;;;;;;;5032836;28;20037;-78
2023/04/18 04:55:57;;;;;;;14.73;8.65;;;;;;;;;;5030117;28;20033;-78
2023/04/18 04:58:23;;;;;;;13.10;8.40;;;;;;;;;;5029175;28;20059;-78
2023/04/18 05:00:51;;;;;;;14.50;8.27;;;;;;;;;;5034522;28;20128;-78
2023/04/18 05:03:17;;;;;;;13.07;8.32;;;;;;;;;;5037540;28;20530;-78
2023/04/18 05:05:43;;;;;;;11.35;7.80;;;;;;;;;;5034154;28;20052;-78
2023/04/18 05:08:09;;;;;;;12.82;8.27;;;;;;;;;;5035522;28;20069;-77
2023/04/18 05:10:35;;;;;;;11.95;7.78;;;;;;;;;;5043973;28;20033;-78
2023/04/18 05:13:02;;;;;;;10.85;7.25;;;;;;;;;;5053748;28;20532;-78
2023/04/18 05:15:29;;;;;;;10.93;6.65;;;;;;;;;;5053166;28;20036;-77
2023/04/18 05:17:56;;;;;;;10.65;6.60;;;;;;;;;;5052146;28;20067;-77
2023/04/18 05:20:22;;;;;;;10.35;6.55;;;;;;;;;;5051697;28;20041;-77
2023/04/18 05:22:48;;;;;;;11.82;6.95;;;;;;;;;;5046651;28;20153;-78
2023/04/18 05:25:14;;;;;;;9.27;5.88;;;;;;;;;;5048055;28;20557;-77
2023/04/18 05:27:40;;;;;;;8.70;6.28;;;;;;;;;;5041906;28;20045;-78
2023/04/18 05:30:07;;;;;;;8.38;6.00;;;;;;;;;;5040510;28;20032;-78
2023/04/18 05:32:33;;;;;;;8.27;5.32;;;;;;;;;;5034156;28;20068;-76
2023/04/18 05:34:59;;;;;;;7.63;5.50;;;;;;;;;;5015436;28;20040;-77
2023/04/18 05:37:25;;;;;;;7.80;5.35;;;;;;;;;;5037739;28;20038;-78
2023/04/18 05:39:51;;;;;;;9.85;5.13;;;;;;;;;;5049557;28;20049;-77
2023/04/18 05:42:17;;;;;;;7.93;4.82;;;;;;;;;;5045953;28;20537;-77
2023/04/18 05:44:43;;;;;;;6.65;4.90;;;;;;;;;;5042350;28;20069;-77
2023/04/18 05:47:09;;;;;;;7.93;4.85;;;;;;;;;;5037263;28;20134;-77
2023/04/18 05:49:35;;;;;;;6.47;4.97;;;;;;;;;;5045504;28;20037;-75
2023/04/18 05:52:02;;;;;;;7.65;5.20;;;;;;;;;;5053505;28;20040;-76
2023/04/18 05:54:28;;;;;;;6.43;4.85;;;;;;;;;;5055091;28;20025;-76
2023/04/18 05:56:55;;;;;;;5.95;4.43;;;;;;;;;;5054899;28;20087;-77
2023/04/18 05:59:21;;;;;;;6.40;4.65;;;;;;;;;;5045067;28;20434;-76
2023/04/18 06:01:48;;;;;;;6.75;4.78;;;;;;;;;;5034562;28;20459;-76
2023/04/18 06:04:14;;;;;;;6.72;4.55;;;;;;;;;;5034593;28;20038;-76
2023/04/18 06:06:40;;;;;;;10.93;6.13;;;;;;;;;;5034169;28;20434;-76
2023/04/18 06:09:07;;;;;;;18.85;8.50;;;;;;;;;;5044148;28;20063;-76
2023/04/18 06:11:34;;;;;;;13.63;7.45;;;;;;;;;;5034585;28;20665;-76
2023/04/18 06:14:00;;;;;;;7.93;4.97;;;;;;;;;;5052308;28;20049;-77
2023/04/18 06:16:26;;;;;;;7.05;4.68;;;;;;;;;;5052493;28;20134;-76
2023/04/18 06:18:53;;;;;;;5.88;4.60;;;;;;;;;;5044653;28;20394;-76
2023/04/18 06:21:20;;;;;;;6.20;4.85;;;;;;;;;;5033678;28;20411;-76
2023/04/18 06:23:46;;;;;;;5.43;3.90;;;;;;;;;;5034166;28;20041;-77
2023/04/18 06:26:12;;;;;;;6.97;4.07;;;;;;;;;;5033471;28;20032;-77
2023/04/18 06:28:38;;;;;;;6.65;3.78;;;;;;;;;;5033872;28;20043;-75
2023/04/18 06:31:04;;;;;;;5.10;3.80;;;;;;;;;;5021285;28;20029;-77
2023/04/18 06:33:30;;;;;;;5.18;3.80;;;;;;;;;;5051901;28;20529;-77
2023/04/18 06:35:56;;;;;;;4.13;3.30;;;;;;;;;;5042610;28;20125;-76
2023/04/18 06:38:23;;;;;;;4.30;3.15;;;;;;;;;;5015903;28;20045;-76
2023/04/18 06:40:49;;;;;;;5.93;3.30;;;;;;;;;;5033734;28;20083;-76
2023/04/18 06:43:15;;;;;;;4.60;3.30;;;;;;;;;;5033761;28;20064;-76
2023/04/18 06:45:41;;;;;;;5.20;3.20;;;;;;;;;;5033592;28;20386;-77
2023/04/18 06:48:09;;;;;;;4.30;3.60;;;;;;;;;;5033780;28;20042;-77
2023/04/18 06:50:35;;;;;;;4.40;3.33;;;;;;;;;;5033286;28;20034;-76
2023/04/18 06:53:01;;;;;;;5.75;4.20;;;;;;;;;;5039250;28;20029;-76
2023/04/18 06:55:27;;;;;;;4.85;3.60;;;;;;;;;;5052844;28;20029;-77
2023/04/18 06:57:53;;;;;;;4.95;3.70;;;;;;;;;;5037796;28;20037;-76
2023/04/18 07:00:19;;;;;;;5.05;3.60;;;;;;;;;;5034759;28;20033;-76
2023/04/18 07:02:46;;;;;;;5.85;3.75;;;;;;;;;;5014623;28;20033;-77
2023/04/18 07:05:12;;;;;;;5.15;3.78;;;;;;;;;;5042921;28;20381;-77
2023/04/18 07:07:38;;;;;;;6.30;4.00;;;;;;;;;;5053758;28;20040;-77
2023/04/18 07:10:05;;;;;;;6.60;4.20;;;;;;;;;;5035011;28;20425;-76
2023/04/18 07:12:31;;;;;;;5.20;3.80;;;;;;;;;;5051159;28;20060;-77
2023/04/18 07:14:57;;;;;;;4.50;3.45;;;;;;;;;;5035096;28;20049;-77
2023/04/18 07:17:23;;;;;;;5.47;3.85;;;;;;;;;;5046510;28;20404;-77
2023/04/18 07:19:49;;;;;;;7.38;4.88;;;;;;;;;;5052225;28;20037;-77
2023/04/18 07:22:15;;;;;;;4.55;3.70;;;;;;;;;;5052073;28;20028;-77
2023/04/18 07:24:42;;;;;;;5.75;3.83;;;;;;;;;;5050368;28;20052;-77
2023/04/18 07:27:08;;;;;;;5.35;3.90;;;;;;;;;;5047931;28;20068;-78
2023/04/18 07:29:35;;;;;;;7.75;3.88;;;;;;;;;;5052587;28;20029;-76
2023/04/18 07:32:01;;;;;;;4.95;3.40;;;;;;;;;;5052871;28;20063;-77
2023/04/18 07:34:28;;;;;;;6.13;4.18;;;;;;;;;;5050224;28;20043;-77
2023/04/18 07:36:57;;;;;;;5.43;3.58;;;;;;;;;;5052979;28;20028;-77
2023/04/18 07:39:23;;;;;;;5.30;4.00;;;;;;;;;;5052280;28;20057;-77
2023/04/18 07:41:49;;;;;;;5.90;4.80;;;;;;;;;;5035039;28;20120;-76
2023/04/18 07:44:15;;;;;;;4.95;3.80;;;;;;;;;;5049975;28;20060;-77
2023/04/18 07:46:41;;;;;;;5.63;4.78;;;;;;;;;;5032951;28;20053;-78
2023/04/18 07:49:07;;;;;;;5.57;3.72;;;;;;;;;;5034238;28;20045;-76
2023/04/18 07:51:34;;;;;;;4.13;3.30;;;;;;;;;;5047855;28;20040;-76
2023/04/18 07:54:00;;;;;;;5.75;3.50;;;;;;;;;;5033366;28;20037;-77
2023/04/18 07:56:28;;;;;;;4.97;3.40;;;;;;;;;;5052336;28;20040;-77
2023/04/18 07:58:54;;;;;;;3.70;3.05;;;;;;;;;;5051027;28;20036;-76
2023/04/18 08:01:23;;;;;;;4.72;3.67;;;;;;;;;;5051950;28;20048;-77
2023/04/18 08:03:50;;;;;;;4.53;3.78;;;;;;;;;;5050003;28;20036;-76
2023/04/18 08:06:16;;;;;;;4.75;3.58;;;;;;;;;;5013355;28;20040;-77
2023/04/18 08:08:42;;;;;;;7.35;4.05;;;;;;;;;;5013955;28;20747;-77
2023/04/18 08:11:08;;;;;;;5.22;3.88;;;;;;;;;;5031823;28;20034;-76
2023/04/18 08:13:34;;;;;;;4.68;3.42;;;;;;;;;;5014216;28;20046;-78
2023/04/18 08:16:01;;;;;;;5.32;3.30;;;;;;;;;;5033006;28;20148;-77
2023/04/18 08:18:27;;;;;;;8.20;3.70;;;;;;;;;;5033706;28;20030;-78
2023/04/18 08:20:54;;;;;;;4.35;3.50;;;;;;;;;;5033439;28;20529;-77
2023/04/18 08:23:20;;;;;;;4.90;3.38;;;;;;;;;;5032991;28;20398;-78
2023/04/18 08:25:46;;;;;;;6.95;4.55;;;;;;;;;;5046733;28;20509;-77
2023/04/18 08:28:12;;;;;;;6.28;4.00;;;;;;;;;;5034127;28;20049;-77
2023/04/18 08:30:38;;;;;;;7.90;3.88;;;358.60;2329.60;;;;;;5052629;28;20025;-78
2023/04/18 08:33:04;;;;;;;6.63;4.18;;;358.40;2329.60;;;;;;5051862;28;20043;-78
2023/04/18 08:35:30;;;;;;;6.90;3.58;;;333.70;2329.60;;;;;;5051391;28;20033;-78
2023/04/18 08:37:56;;;;;;;6.43;4.70;;;333.70;2329.60;;;;;;5052029;28;20087;-77
2023/04/18 08:40:21;;;;;;;7.10;5.28;;;358.40;2329.60;;;;;;5052526;28;20040;-78
2023/04/18 08:42:50;;;;;;;7.00;5.07;;;358.50;2329.60;;;;;;5053282;28;20044;-77
2023/04/18 08:45:18;;;;;;;4.72;3.38;;;358.40;2329.60;;;;;;5035276;28;20029;-77
2023/04/18 08:47:44;;;;;;;4.25;2.72;;;333.60;2329.60;;;;;;5027523;28;20041;-77
2023/04/18 08:50:11;;;;;;;22.02;11.43;;;333.40;2329.60;;;;;;5034649;28;20042;-77
2023/04/18 08:52:38;;;;;;;16.08;8.43;;;333.60;2329.60;;;;;;5032316;28;20399;-78
2023/04/18 08:55:05;;;;;;;6.13;4.20;;;333.60;2329.60;;;;;;5029366;28;20037;-78
2023/04/18 08:57:32;;;;;;;6.25;4.03;;;333.60;2329.60;;;;;;5049510;28;20048;-78
2023/04/18 08:59:59;;;;;;;4.53;3.53;;;333.60;2329.60;;;;;;5052429;28;20110;-78
2023/04/18 09:02:37;;;;;;;3.70;3.13;;;333.50;2329.60;;;;;;5051822;28;20025;-77
2023/04/18 09:05:15;;;;;;;5.03;3.50;;;333.50;2329.60;;;;;;5050780;28;20040;-77
2023/04/18 09:07:42;;;;;;;5.10;3.63;;;333.60;2329.60;;;;;;5051838;28;20056;-78
2023/04/18 09:10:08;;;;;;;4.32;3.50;;;333.70;2329.60;;;;;;5041611;28;20482;-78
2023/04/18 09:12:42;;;;;;;4.55;3.67;;;333.70;2329.60;;;;;;5012730;28;20136;-77
2023/04/18 09:15:15;;;;;;;6.78;5.43;;;358.40;2329.60;;;;;;5049174;28;20037;-78
2023/04/18 09:17:44;;;;;;;5.30;4.35;;;358.60;2329.60;;;;;;5051741;28;20083;-78
2023/04/18 09:20:11;;;;;;;5.40;4.50;;;358.50;2329.60;;;;;;5042207;28;20040;-78
2023/04/18 09:22:59;;;;;;;9.15;6.15;;;358.70;2329.60;;;;;;5044450;28;20382;-78
2023/04/18 09:25:27;;;;;;;4.32;3.92;;;358.70;2329.60;;;;;;5032321;28;20044;-77
2023/04/18 09:27:59;;;;;;;6.20;4.30;;;358.60;2329.60;;;;;;5041763;28;20088;-77
2023/04/18 09:30:29;;;;;;;4.70;4.05;;;358.40;2329.60;;;;;;5045657;28;20478;-78
2023/04/18 09:32:59;;;;;;;6.55;4.40;;;358.40;2329.60;;;;;;5051315;28;20132;-78
2023/04/18 09:35:25;;;;;;;5.38;4.55;;;358.60;2329.60;;;;;;5051744;28;20039;-78
2023/04/18 09:37:51;;;;;;;5.32;4.60;;;358.40;2329.60;;;;;;5051586;28;20036;-78
2023/04/18 09:40:18;;;;;;;6.18;4.70;;;358.40;2329.60;;;;;;5048469;28;20083;-77
2023/04/18 09:42:45;;;;;;;6.40;5.32;;;358.70;2329.60;;;;;;5031714;28;20056;-78
2023/04/18 09:45:12;;;;;;;5.85;4.32;;;358.60;2329.60;;;;;;5031482;28;20080;-78
2023/04/18 09:47:38;;;;;;;9.48;6.13;;;358.40;2329.60;;;;;;5037799;28;20052;-77
2023/04/18 09:50:09;;;;;;;6.68;5.15;;;358.60;2329.60;;;;;;5053835;28;20029;-77
2023/04/18 09:52:40;;;;;;;9.15;5.75;;;358.60;2329.60;;;;;;5044076;28;20029;-76
2023/04/18 09:55:17;;;;;;;7.07;6.00;;;358.50;2329.60;;;;;;5054337;28;20847;-77
2023/04/18 09:57:47;;;;;;;14.73;10.90;;;358.70;2329.60;;;;;;5041047;28;20049;-77
2023/04/18 10:00:26;;;;;;;18.95;12.68;;;358.70;2329.60;;;;;;5030494;28;20544;-76
2023/04/18 10:03:03;;;;;;;9.95;6.97;;;358.90;2329.60;;;;;;5032330;28;20526;-75
2023/04/18 10:05:35;;;;;;;17.67;11.13;;;358.70;2329.60;;;;;;5049446;28;20690;-77
2023/04/18 10:08:01;;;;;;;14.52;8.95;;;358.80;2329.60;;;;;;5049666;28;20378;-78
2023/04/18 10:10:27;;;;;;;14.82;8.93;;;;;;;;;;5052915;28;20360;-78
2023/04/18 10:12:55;;;;;;;13.52;8.75;;;;;;;;;;5050730;28;20136;-77
2023/04/18 10:15:22;;;;;;;8.13;5.97;;;;;;;;;;5052099;28;20589;-76
2023/04/18 10:17:54;;;;;;;5.95;5.22;;;;;;;;;;5052086;28;20120;-77
2023/04/18 10:20:25;;;;;;;5.95;5.15;;;;;;;;;;5034572;28;20036;-78
2023/04/18 10:22:53;;;;;;;8.73;6.70;;;;;;;;;;5049265;28;20068;-77
2023/04/18 10:25:34;;;;;;;6.70;5.35;;;;;;;;;;5033694;28;20048;-76
2023/04/18 10:28:01;;;;;;;8.35;6.38;;;;;;;;;;5042748;28;20055;-78
2023/04/18 10:30:39;;;;;;;12.77;9.35;;;;;;;;;;5042851;28;20037;-78
2023/04/18 10:33:24;;;;;;;11.23;6.90;;;;;;;;;;5041922;28;20090;-77
2023/04/18 10:35:50;;;;;;;;;;;;;;;;;;5035912;28;20556;-77
2023/04/18 10:38:16;;;;;;;9.35;6.15;;;;;;;;;;5042776;28;19909;-78
2023/04/18 10:40:45;;;;;;;7.80;5.90;;;;;;;;;;5041880;28;20384;-77
2023/04/18 10:43:12;;;;;;;9.30;5.90;;;;;;;;;;5052954;28;20029;-78
2023/04/18 10:45:38;;;;;;;5.47;4.50;;;;;;;;;;5047410;28;20432;-77
2023/04/18 10:48:26;;;;;;;5.05;4.35;;;;;;;;;;5041325;28;20044;-78
2023/04/18 10:51:11;;;;;;;6.47;5.70;;;;;;;;;;5050998;28;20068;-77
2023/04/18 10:53:37;;;;;;;6.95;6.00;;;;;;;;;;5053207;28;20045;-77
2023/04/18 10:56:03;;;;;;;5.47;4.78;;;;;;;;;;5034437;28;20127;-78
2023/04/18 10:58:31;;;;;;;7.85;6.70;;;;;;;;;;5038246;28;20109;-78
2023/04/18 11:00:58;;;;;;;8.13;6.75;;;;;;;;;;5037187;28;20359;-76
2023/04/18 11:03:34;;;;;;;5.90;5.10;;;;;;;;;;5036933;28;20078;-77
2023/04/18 11:06:03;;;;;;;5.40;4.90;;;;;;;;;;5040935;28;20037;-77
2023/04/18 11:08:29;;;;;;;6.28;4.40;;;;;;;;;;5049771;28;20118;-76
2023/04/18 11:10:59;;;;;;;6.10;5.50;;;;;;;;;;5031890;28;20036;-77
2023/04/18 11:13:25;;;;;;;6.38;5.65;;;;;;;;;;5015450;28;20068;-79
2023/04/18 11:15:51;;;;;;;14.18;8.38;;;;;;;;;;5017688;28;20048;-78
2023/04/18 11:21:21;;;;;;;11.43;8.38;;;;;;;;;;5035995;28;20549;-78
2023/04/18 11:23:46;;;;;;;7.25;5.57;;;384.60;2329.60;;;;;;5051929;28;20029;-78
2023/04/18 11:26:16;;;;;;;10.70;7.18;;;;;;;;;;5043451;28;20086;-78
2023/04/18 11:28:43;;;;;;;3.88;3.50;;;;;;;;;;5051990;28;20645;-78
2023/04/18 11:31:09;;;;;;;5.75;3.90;;;;;;;;;;5038204;28;20029;-78
2023/04/18 11:33:34;;;;;;;5.90;4.53;;;384.80;2329.60;;;;;;5029968;28;20029;-78
2023/04/18 11:36:01;;;;;;;4.13;3.00;;;384.70;2329.60;;;;;;5016162;28;20045;-78
2023/04/18 11:38:29;;;;;;;3.75;2.97;;;384.30;2329.60;;;;;;5042498;28;20033;-78
2023/04/18 11:40:55;;;;;;;5.47;3.83;;;384.30;2329.60;;;;;;5049160;28;20537;-79
2023/04/18 11:43:24;;;;;;;4.93;3.50;;;384.30;2329.60;;;;;;5050658;28;20048;-78
2023/04/18 11:45:54;;;;;;;3.08;2.10;;;384.60;2329.60;;;;;;5051919;28;20123;-78
2023/04/18 11:48:49;;;;;;;4.05;1.80;;;384.30;2329.60;;;;;;5033367;28;20140;-77
2023/04/18 11:51:34;;;;;;;4.30;2.63;;;384.20;2329.60;;;;;;4933713;29;20039;-76
2023/04/18 11:54:01;;;;;;;3.90;3.00;;;384.60;2329.60;;;;;;4948201;28;20176;-76
2023/04/18 11:56:27;;;;;;;6.32;4.20;;;;;;;;;;4958548;28;20141;-76
2023/04/18 11:58:53;;;;;;;5.25;3.60;;;;;;;;;;4967546;28;20433;-78
2023/04/18 12:01:20;;;;;;;5.03;4.07;;;;;;;;;;4957182;28;20039;-77
2023/04/18 12:04:01;;;;;;;6.47;4.40;;;;;;;;;;4949624;28;20030;-78
2023/04/18 12:06:28;;;;;;;5.65;4.50;;;;;;;;;;4942569;29;20086;-77
2023/04/18 12:08:58;;;;;;;5.53;3.50;;;;;;;;;;4949419;28;20493;-77
2023/04/18 12:11:24;;;;;;;4.60;3.65;;;;;;;;;;4947814;28;20497;-77
2023/04/18 12:13:54;;;;;;;5.20;3.63;;;;;;;;;;4952474;28;20047;-78
2023/04/18 12:16:20;;;;;;;5.43;4.22;;;;;;;;;;4950725;29;20065;-78
2023/04/18 12:18:48;;;;;;;4.63;3.60;;;;;;;;;;4956115;28;20039;-76
2023/04/18 12:21:15;;;;;;;6.20;3.88;;;;;;;;;;4962897;28;20041;-77
2023/04/18 12:23:44;;;;;;;4.90;3.65;;;;;;;;;;4947752;28;20066;-77
2023/04/18 12:26:17;;;;;;;8.00;3.78;;;;;;;;;;4949537;28;20051;-77
2023/04/18 12:28:46;;;;;;;6.03;3.92;;;;;;;;;;5034293;28;20040;-77
2023/04/18 12:31:12;;;;;;;5.13;3.88;;;;;;;;;;5035794;28;20139;-77
2023/04/18 12:33:39;;;;;;;5.05;3.92;;;;;;;;;;5019610;28;20033;-76
2023/04/18 12:36:07;;;;;;;3.85;2.95;;;;;;;;;;5015526;28;20063;-77
2023/04/18 12:38:33;;;;;;;4.05;3.10;;;;;;;;;;5034298;28;20041;-76
2023/04/18 12:40:59;;;;;;;4.95;2.50;;;;;;;;;;5017773;28;20071;-76
2023/04/18 12:43:25;;;;;;;7.28;4.10;;;;;;;;;;5037752;28;20091;-76
2023/04/18 12:45:51;;;;;;;5.13;3.20;;;;;;;;;;5038577;28;20037;-76
2023/04/18 12:48:17;;;;;;;3.65;2.70;;;;;;;;;;5019159;28;20091;-76
2023/04/18 12:50:43;;;;;;;5.03;2.97;;;;;;;;;;5031716;28;20493;-77
2023/04/18 12:53:09;;;;;;;5.43;3.10;;;;;;;;;;5031879;28;20052;-77
2023/04/18 12:55:36;;;;;;;3.53;2.92;;;;;;;;;;5032441;28;20041;-76
2023/04/18 12:58:02;;;;;;;3.00;2.70;;;;;;;;;;5019032;28;20040;-77
2023/04/18 13:00:30;;;;;;;3.75;2.72;;;;;;;;;;5033993;28;20037;-78
2023/04/18 13:02:56;;;;;;;3.95;3.00;;;;;;;;;;5033208;28;20620;-77
2023/04/18 13:05:24;;;;;;;5.68;2.85;;;;;;;;;;5014792;28;20041;-77
2023/04/18 13:07:52;;;;;;;4.80;3.30;;;;;;;;;;5034710;28;20379;-77
2023/04/18 13:10:19;;;;;;;3.35;2.97;;;;;;;;;;5029933;28;20044;-77
2023/04/18 13:12:45;;;;;;;4.30;3.30;;;;;;;;;;5031383;28;20034;-78
2023/04/18 13:15:12;;;;;;;3.95;3.00;;;;;;;;;;5029428;28;20040;-77
2023/04/18 13:17:39;;;;;;;3.40;2.95;;;;;;;;;;5028748;28;20045;-78
2023/04/18 13:20:09;;;;;;;3.55;2.70;;;;;;;;;;5033674;28;20419;-78
2023/04/18 13:22:36;;;;;;;3.10;2.70;;;;;;;;;;5017015;28;20517;-78
2023/04/18 13:25:02;;;;;;;4.28;2.92;;;;;;;;;;5043138;28;20492;-77
2023/04/18 13:27:28;;;;;;;2.95;2.60;;;;;;;;;;5040072;28;20111;-77
2023/04/18 13:29:55;;;;;;;5.53;2.67;;;;;;;;;;5041649;28;20041;-76
2023/04/18 13:32:21;;;;;;;6.47;3.20;;;;;;;;;;5037619;28;20112;-76
2023/04/18 13:34:48;;;;;;;2.53;2.00;;;;;;;;;;5041147;28;20033;-77
2023/04/18 13:37:14;;;;;;;3.83;2.47;;;;;;;;;;5044610;28;20037;-77
2023/04/18 13:39:40;;;;;;;3.38;2.60;;;;;;;;;;5039462;28;20037;-78
2023/04/18 13:42:06;;;;;;;4.20;2.70;;;;;;;;;;5047481;28;20116;-79
2023/04/18 13:44:34;;;;;;;3.90;3.42;;;;;;;;;;5037420;28;20466;-78
2023/04/18 13:47:00;;;;;;;4.78;3.00;;;;;;;;;;5041107;28;20025;-78
2023/04/18 13:49:26;;;;;;;5.75;2.85;;;;;;;;;;5033650;28;20076;-78
2023/04/18 13:51:55;;;;;;;4.25;3.33;;;;;;;;;;5053142;28;20496;-78
2023/04/18 13:54:21;;;;;;;5.28;2.90;;;;;;;;;;5054366;28;20033;-77
2023/04/18 13:56:47;;;;;;;4.03;3.63;;;;;;;;;;5053557;28;20091;-78
2023/04/18 13:59:14;;;;;;;4.30;3.72;;;;;;;;;;5053850;28;20489;-78
2023/04/18 14:01:40;;;;;;;4.03;3.10;;;;;;;;;;5053203;28;20048;-77
2023/04/18 14:04:06;;;;;;;4.55;3.25;;;;;;;;;;5049525;28;20041;-76
2023/04/18 14:06:32;;;;;;;5.20;4.60;;;;;;;;;;5048818;28;20041;-77
2023/04/18 14:08:58;;;;;;;7.25;4.50;;;;;;;;;;5052099;28;20065;-78
2023/04/18 14:11:24;;;;;;;5.15;4.65;;;;;;;;;;5036807;28;20030;-78
2023/04/18 14:13:50;;;;;;;8.15;5.78;;;;;;;;;;5017772;28;20133;-78